Aérodrome :
LOGIN :

S'inscrire | Disclaimer

   EN    FR    IT 

 










Légende :    VFR   VFR Marginal   IFR   IFR Intensif   IFR Très Intensif
Visi : 
Plafond : 
>= 8 km
>= 3000ft
5 à 8 km
1000 à 3000 ft
1500m à 5 km
500 à 1000 ft
800 à 1500m
200 à 500 ft
< 800m
< 200 ft
Symboles :   Orages  Brouillard  Fortes neiges  Fortes précipitations  Vent > 20 kt
SIGMETs :   Divers  Orages  Givrage  Turbulence  Onde Orograph.  Cendres Volcan.







- Altitude de l'aérodrome : 55 ft
- Code IATA : DSA
- Voir les cartes d'approche


EGCN - Robin Hood Doncaster Sheffield

DERNIER METAR :
  • 292050Z 11006KT CAVOK 10/07 Q1012

METARs EXPIRÉS :
  • 292020Z 11006KT 080V150 CAVOK 11/07 Q1012
  • 291950Z 11006KT 070V130 CAVOK 13/07 Q1012
  • 291920Z 12006KT CAVOK 12/06 Q1012
  • 291850Z 15004KT 110V180 CAVOK 12/04 Q1012
  • 291820Z 15005KT CAVOK 13/04 Q1012

TAF TAF EGCN
Valide du 29 à 18h jusqu'au 30 à 18h UTC


291700Z 2918/3018 17008KT 9999 SCT040
BECMG 3006/3009 10013KT
Pas de NOTAMs connus pour ce terrain.



MET'MAP, la Météo Aéronautique d'un coup d'oeil ! - Copyright ORBIFLY Décembre 2007 - Disclaimer

ORBIFLY MET'MAP TEAM :

Programmation & Développement : Alexandra Zaïnal
Conception & Développement : Baudouin d'Aumeries
Co-Programmation & Développement : Marc-Olivier Méhu
Soutien technique & logistique : Manuel Goepfert

Contact : metmap@orbifly.com




SOURCES & CREDITS :

   NOAA